sensor_id;sensor_type;location;lat;lon;timestamp;P1;durP1;ratioP1;P2;durP2;ratioP2
42084;SDS011;27746;52.228;20.890;2024-03-29T00:01:53;10.52;;;5.72;;
42084;SDS011;27746;52.228;20.890;2024-03-29T00:04:19;12.15;;;6.38;;
42084;SDS011;27746;52.228;20.890;2024-03-29T00:06:44;10.80;;;6.05;;
42084;SDS011;27746;52.228;20.890;2024-03-29T00:09:11;10.02;;;5.82;;
42084;SDS011;27746;52.228;20.890;2024-03-29T00:11:37;9.93;;;5.38;;
42084;SDS011;27746;52.228;20.890;2024-03-29T00:14:03;9.32;;;5.15;;
42084;SDS011;27746;52.228;20.890;2024-03-29T00:16:29;13.88;;;5.72;;
42084;SDS011;27746;52.228;20.890;2024-03-29T00:18:56;12.93;;;5.72;;
42084;SDS011;27746;52.228;20.890;2024-03-29T00:21:26;10.43;;;5.93;;
42084;SDS011;27746;52.228;20.890;2024-03-29T00:24:00;9.63;;;5.60;;
42084;SDS011;27746;52.228;20.890;2024-03-29T00:26:26;13.40;;;6.65;;
42084;SDS011;27746;52.228;20.890;2024-03-29T00:28:52;7.78;;;4.47;;
42084;SDS011;27746;52.228;20.890;2024-03-29T00:31:19;11.10;;;5.15;;
42084;SDS011;27746;52.228;20.890;2024-03-29T00:33:45;9.65;;;5.28;;
42084;SDS011;27746;52.228;20.890;2024-03-29T00:36:14;10.55;;;5.05;;
42084;SDS011;27746;52.228;20.890;2024-03-29T00:38:40;11.27;;;4.82;;
42084;SDS011;27746;52.228;20.890;2024-03-29T00:41:06;8.60;;;4.80;;
42084;SDS011;27746;52.228;20.890;2024-03-29T00:43:32;10.05;;;4.70;;
42084;SDS011;27746;52.228;20.890;2024-03-29T00:45:58;9.52;;;4.38;;
42084;SDS011;27746;52.228;20.890;2024-03-29T00:48:24;8.10;;;4.30;;
42084;SDS011;27746;52.228;20.890;2024-03-29T00:50:50;6.97;;;3.92;;
42084;SDS011;27746;52.228;20.890;2024-03-29T00:53:18;6.20;;;3.60;;
42084;SDS011;27746;52.228;20.890;2024-03-29T00:55:43;6.90;;;3.92;;
42084;SDS011;27746;52.228;20.890;2024-03-29T00:58:09;7.53;;;3.60;;
42084;SDS011;27746;52.228;20.890;2024-03-29T01:00:35;8.30;;;3.67;;
42084;SDS011;27746;52.228;20.890;2024-03-29T01:03:01;9.93;;;3.53;;
42084;SDS011;27746;52.228;20.890;2024-03-29T01:05:27;5.63;;;3.08;;
42084;SDS011;27746;52.228;20.890;2024-03-29T01:07:53;6.43;;;2.78;;
42084;SDS011;27746;52.228;20.890;2024-03-29T01:10:21;6.70;;;3.00;;
42084;SDS011;27746;52.228;20.890;2024-03-29T01:12:47;6.97;;;2.78;;
42084;SDS011;27746;52.228;20.890;2024-03-29T01:15:13;6.47;;;2.58;;
42084;SDS011;27746;52.228;20.890;2024-03-29T01:17:39;5.18;;;2.83;;
42084;SDS011;27746;52.228;20.890;2024-03-29T01:20:05;4.05;;;2.33;;
42084;SDS011;27746;52.228;20.890;2024-03-29T01:22:31;8.00;;;3.10;;
42084;SDS011;27746;52.228;20.890;2024-03-29T01:24:58;5.35;;;2.83;;
42084;SDS011;27746;52.228;20.890;2024-03-29T01:27:25;4.53;;;2.47;;
42084;SDS011;27746;52.228;20.890;2024-03-29T01:29:51;6.00;;;2.70;;
42084;SDS011;27746;52.228;20.890;2024-03-29T01:32:17;5.28;;;2.40;;
42084;SDS011;27746;52.228;20.890;2024-03-29T01:34:43;4.10;;;2.55;;
42084;SDS011;27746;52.228;20.890;2024-03-29T01:37:09;6.68;;;2.65;;
42084;SDS011;27746;52.228;20.890;2024-03-29T01:39:35;7.63;;;2.53;;
42084;SDS011;27746;52.228;20.890;2024-03-29T01:42:01;5.30;;;2.70;;
42084;SDS011;27746;52.228;20.890;2024-03-29T01:44:29;6.68;;;2.70;;
42084;SDS011;27746;52.228;20.890;2024-03-29T01:46:56;5.00;;;2.70;;
42084;SDS011;27746;52.228;20.890;2024-03-29T01:49:23;4.93;;;2.10;;
42084;SDS011;27746;52.228;20.890;2024-03-29T01:51:51;4.70;;;2.47;;
42084;SDS011;27746;52.228;20.890;2024-03-29T01:54:18;4.45;;;2.15;;
42084;SDS011;27746;52.228;20.890;2024-03-29T01:56:46;4.82;;;2.25;;
42084;SDS011;27746;52.228;20.890;2024-03-29T01:59:15;4.43;;;2.05;;
42084;SDS011;27746;52.228;20.890;2024-03-29T02:01:46;4.57;;;2.25;;
42084;SDS011;27746;52.228;20.890;2024-03-29T02:04:14;6.30;;;2.00;;
42084;SDS011;27746;52.228;20.890;2024-03-29T02:06:41;4.97;;;2.13;;
42084;SDS011;27746;52.228;20.890;2024-03-29T02:09:08;3.92;;;2.08;;
42084;SDS011;27746;52.228;20.890;2024-03-29T02:11:38;4.40;;;2.00;;
42084;SDS011;27746;52.228;20.890;2024-03-29T02:14:05;3.45;;;1.98;;
42084;SDS011;27746;52.228;20.890;2024-03-29T02:16:32;4.45;;;2.03;;
42084;SDS011;27746;52.228;20.890;2024-03-29T02:18:59;3.95;;;2.13;;
42084;SDS011;27746;52.228;20.890;2024-03-29T02:21:26;3.60;;;2.00;;
42084;SDS011;27746;52.228;20.890;2024-03-29T02:23:58;4.05;;;2.10;;
42084;SDS011;27746;52.228;20.890;2024-03-29T02:26:27;3.85;;;2.22;;
42084;SDS011;27746;52.228;20.890;2024-03-29T02:28:57;4.30;;;2.20;;
42084;SDS011;27746;52.228;20.890;2024-03-29T02:31:24;4.65;;;2.00;;
42084;SDS011;27746;52.228;20.890;2024-03-29T02:33:51;4.32;;;2.00;;
42084;SDS011;27746;52.228;20.890;2024-03-29T02:36:18;4.55;;;2.30;;
42084;SDS011;27746;52.228;20.890;2024-03-29T02:38:45;5.50;;;2.55;;
42084;SDS011;27746;52.228;20.890;2024-03-29T02:41:14;5.05;;;2.80;;
42084;SDS011;27746;52.228;20.890;2024-03-29T02:43:40;7.43;;;2.67;;
42084;SDS011;27746;52.228;20.890;2024-03-29T02:46:07;4.50;;;2.70;;
42084;SDS011;27746;52.228;20.890;2024-03-29T02:48:34;5.57;;;2.00;;
42084;SDS011;27746;52.228;20.890;2024-03-29T02:51:00;5.20;;;2.60;;
42084;SDS011;27746;52.228;20.890;2024-03-29T02:53:28;3.83;;;1.98;;
42084;SDS011;27746;52.228;20.890;2024-03-29T02:55:54;4.38;;;2.22;;
42084;SDS011;27746;52.228;20.890;2024-03-29T02:58:22;4.88;;;2.38;;
42084;SDS011;27746;52.228;20.890;2024-03-29T03:00:48;3.63;;;1.90;;
42084;SDS011;27746;52.228;20.890;2024-03-29T03:03:15;4.47;;;2.22;;
42084;SDS011;27746;52.228;20.890;2024-03-29T03:05:41;4.78;;;2.05;;
42084;SDS011;27746;52.228;20.890;2024-03-29T03:08:08;4.80;;;2.10;;
42084;SDS011;27746;52.228;20.890;2024-03-29T03:10:53;3.92;;;2.15;;
42084;SDS011;27746;52.228;20.890;2024-03-29T03:13:26;5.38;;;2.83;;
42084;SDS011;27746;52.228;20.890;2024-03-29T03:15:53;7.05;;;2.63;;
42084;SDS011;27746;52.228;20.890;2024-03-29T03:18:20;5.07;;;2.67;;
42084;SDS011;27746;52.228;20.890;2024-03-29T03:20:50;3.45;;;1.88;;
42084;SDS011;27746;52.228;20.890;2024-03-29T03:23:17;4.50;;;2.03;;
42084;SDS011;27746;52.228;20.890;2024-03-29T03:25:43;5.20;;;2.42;;
42084;SDS011;27746;52.228;20.890;2024-03-29T03:28:10;4.65;;;2.40;;
42084;SDS011;27746;52.228;20.890;2024-03-29T03:30:39;4.82;;;2.13;;
42084;SDS011;27746;52.228;20.890;2024-03-29T03:33:06;5.78;;;2.70;;
42084;SDS011;27746;52.228;20.890;2024-03-29T03:35:33;4.18;;;2.28;;
42084;SDS011;27746;52.228;20.890;2024-03-29T03:38:00;4.00;;;2.17;;
42084;SDS011;27746;52.228;20.890;2024-03-29T03:40:26;4.13;;;2.30;;
42084;SDS011;27746;52.228;20.890;2024-03-29T03:42:53;5.43;;;2.50;;
42084;SDS011;27746;52.228;20.890;2024-03-29T03:45:19;5.38;;;2.40;;
42084;SDS011;27746;52.228;20.890;2024-03-29T03:47:48;4.75;;;2.38;;
42084;SDS011;27746;52.228;20.890;2024-03-29T03:50:14;4.70;;;2.20;;
42084;SDS011;27746;52.228;20.890;2024-03-29T03:52:42;4.93;;;2.75;;
42084;SDS011;27746;52.228;20.890;2024-03-29T03:55:08;3.88;;;2.30;;
42084;SDS011;27746;52.228;20.890;2024-03-29T03:57:35;4.07;;;2.20;;
42084;SDS011;27746;52.228;20.890;2024-03-29T04:00:01;5.70;;;2.83;;
42084;SDS011;27746;52.228;20.890;2024-03-29T04:02:28;6.80;;;2.85;;
42084;SDS011;27746;52.228;20.890;2024-03-29T04:04:56;5.05;;;2.30;;
42084;SDS011;27746;52.228;20.890;2024-03-29T04:07:23;3.97;;;2.15;;
42084;SDS011;27746;52.228;20.890;2024-03-29T04:09:50;4.07;;;2.15;;
42084;SDS011;27746;52.228;20.890;2024-03-29T04:12:17;4.57;;;2.30;;
42084;SDS011;27746;52.228;20.890;2024-03-29T04:14:43;4.35;;;2.25;;
42084;SDS011;27746;52.228;20.890;2024-03-29T04:17:10;5.28;;;2.88;;
42084;SDS011;27746;52.228;20.890;2024-03-29T04:19:36;4.07;;;2.03;;
42084;SDS011;27746;52.228;20.890;2024-03-29T04:22:04;4.65;;;2.40;;
42084;SDS011;27746;52.228;20.890;2024-03-29T04:24:30;4.50;;;2.60;;
42084;SDS011;27746;52.228;20.890;2024-03-29T04:26:57;5.25;;;2.67;;
42084;SDS011;27746;52.228;20.890;2024-03-29T04:29:24;5.20;;;2.53;;
42084;SDS011;27746;52.228;20.890;2024-03-29T04:31:51;4.25;;;2.47;;
42084;SDS011;27746;52.228;20.890;2024-03-29T04:34:17;6.00;;;2.90;;
42084;SDS011;27746;52.228;20.890;2024-03-29T04:36:44;6.30;;;2.60;;
42084;SDS011;27746;52.228;20.890;2024-03-29T04:39:12;4.70;;;2.63;;
42084;SDS011;27746;52.228;20.890;2024-03-29T04:41:39;3.90;;;2.20;;
42084;SDS011;27746;52.228;20.890;2024-03-29T04:44:06;6.72;;;2.83;;
42084;SDS011;27746;52.228;20.890;2024-03-29T04:46:33;4.45;;;2.38;;
42084;SDS011;27746;52.228;20.890;2024-03-29T04:49:01;6.05;;;2.75;;
42084;SDS011;27746;52.228;20.890;2024-03-29T04:51:27;4.25;;;2.47;;
42084;SDS011;27746;52.228;20.890;2024-03-29T04:53:55;5.35;;;2.65;;
42084;SDS011;27746;52.228;20.890;2024-03-29T04:56:23;5.72;;;2.75;;
42084;SDS011;27746;52.228;20.890;2024-03-29T04:58:50;5.88;;;2.53;;
42084;SDS011;27746;52.228;20.890;2024-03-29T05:01:17;5.53;;;2.65;;
42084;SDS011;27746;52.228;20.890;2024-03-29T05:03:44;6.82;;;2.65;;
42084;SDS011;27746;52.228;20.890;2024-03-29T05:06:11;4.97;;;2.72;;
42084;SDS011;27746;52.228;20.890;2024-03-29T05:08:38;5.78;;;2.40;;
42084;SDS011;27746;52.228;20.890;2024-03-29T05:11:05;5.05;;;2.20;;
42084;SDS011;27746;52.228;20.890;2024-03-29T05:13:34;5.47;;;2.65;;
42084;SDS011;27746;52.228;20.890;2024-03-29T05:16:01;6.78;;;2.42;;
42084;SDS011;27746;52.228;20.890;2024-03-29T05:18:28;4.38;;;2.30;;
42084;SDS011;27746;52.228;20.890;2024-03-29T05:20:55;5.32;;;2.70;;
42084;SDS011;27746;52.228;20.890;2024-03-29T05:23:21;5.05;;;2.53;;
42084;SDS011;27746;52.228;20.890;2024-03-29T05:25:48;4.97;;;2.60;;
42084;SDS011;27746;52.228;20.890;2024-03-29T05:28:17;6.88;;;2.40;;
42084;SDS011;27746;52.228;20.890;2024-03-29T05:30:46;5.82;;;2.70;;
42084;SDS011;27746;52.228;20.890;2024-03-29T05:33:12;6.30;;;3.42;;
42084;SDS011;27746;52.228;20.890;2024-03-29T05:35:40;4.90;;;2.60;;
42084;SDS011;27746;52.228;20.890;2024-03-29T05:38:07;6.07;;;2.42;;
42084;SDS011;27746;52.228;20.890;2024-03-29T05:40:34;6.40;;;2.60;;
42084;SDS011;27746;52.228;20.890;2024-03-29T05:43:03;6.13;;;2.67;;
42084;SDS011;27746;52.228;20.890;2024-03-29T05:45:30;8.18;;;2.60;;
42084;SDS011;27746;52.228;20.890;2024-03-29T05:47:58;6.45;;;2.58;;
42084;SDS011;27746;52.228;20.890;2024-03-29T05:50:25;5.75;;;2.70;;
42084;SDS011;27746;52.228;20.890;2024-03-29T05:52:52;7.50;;;2.60;;
42084;SDS011;27746;52.228;20.890;2024-03-29T05:55:19;5.28;;;2.20;;
42084;SDS011;27746;52.228;20.890;2024-03-29T05:57:47;6.53;;;2.90;;
42084;SDS011;27746;52.228;20.890;2024-03-29T06:00:16;5.22;;;2.85;;
42084;SDS011;27746;52.228;20.890;2024-03-29T06:02:43;7.00;;;3.17;;
42084;SDS011;27746;52.228;20.890;2024-03-29T06:05:12;5.03;;;2.45;;
42084;SDS011;27746;52.228;20.890;2024-03-29T06:07:39;7.07;;;2.80;;
42084;SDS011;27746;52.228;20.890;2024-03-29T06:10:05;5.68;;;2.70;;
42084;SDS011;27746;52.228;20.890;2024-03-29T06:12:35;8.50;;;2.63;;
42084;SDS011;27746;52.228;20.890;2024-03-29T06:15:03;4.38;;;2.40;;
42084;SDS011;27746;52.228;20.890;2024-03-29T06:18:03;4.57;;;2.20;;
42084;SDS011;27746;52.228;20.890;2024-03-29T06:20:46;6.05;;;2.65;;
42084;SDS011;27746;52.228;20.890;2024-03-29T06:23:13;8.05;;;2.80;;
42084;SDS011;27746;52.228;20.890;2024-03-29T06:25:40;4.30;;;2.30;;
42084;SDS011;27746;52.228;20.890;2024-03-29T06:28:07;5.97;;;2.30;;
42084;SDS011;27746;52.228;20.890;2024-03-29T06:30:34;4.47;;;2.72;;
42084;SDS011;27746;52.228;20.890;2024-03-29T06:33:01;5.00;;;2.10;;
42084;SDS011;27746;52.228;20.890;2024-03-29T06:35:28;3.85;;;2.20;;
42084;SDS011;27746;52.228;20.890;2024-03-29T06:37:57;4.85;;;2.25;;
42084;SDS011;27746;52.228;20.890;2024-03-29T06:40:24;4.80;;;2.90;;
42084;SDS011;27746;52.228;20.890;2024-03-29T06:42:51;5.90;;;2.17;;
42084;SDS011;27746;52.228;20.890;2024-03-29T06:45:21;6.50;;;2.10;;
42084;SDS011;27746;52.228;20.890;2024-03-29T06:47:48;5.55;;;2.17;;
42084;SDS011;27746;52.228;20.890;2024-03-29T06:50:15;4.22;;;2.20;;
42084;SDS011;27746;52.228;20.890;2024-03-29T06:52:42;3.92;;;1.88;;
42084;SDS011;27746;52.228;20.890;2024-03-29T06:55:10;4.80;;;2.08;;
42084;SDS011;27746;52.228;20.890;2024-03-29T06:57:38;5.35;;;2.22;;
42084;SDS011;27746;52.228;20.890;2024-03-29T07:00:06;5.72;;;2.15;;
42084;SDS011;27746;52.228;20.890;2024-03-29T07:02:34;4.82;;;2.17;;
42084;SDS011;27746;52.228;20.890;2024-03-29T07:05:01;3.80;;;1.90;;
42084;SDS011;27746;52.228;20.890;2024-03-29T07:07:32;4.63;;;2.45;;
42084;SDS011;27746;52.228;20.890;2024-03-29T07:09:59;4.50;;;2.00;;
42084;SDS011;27746;52.228;20.890;2024-03-29T07:12:27;3.58;;;1.88;;
42084;SDS011;27746;52.228;20.890;2024-03-29T07:14:54;4.65;;;1.90;;
42084;SDS011;27746;52.228;20.890;2024-03-29T07:17:21;4.68;;;2.00;;
42084;SDS011;27746;52.228;20.890;2024-03-29T07:19:49;4.03;;;1.80;;
42084;SDS011;27746;52.228;20.890;2024-03-29T07:22:15;3.53;;;2.00;;
42084;SDS011;27746;52.228;20.890;2024-03-29T07:24:42;5.28;;;1.88;;
42084;SDS011;27746;52.228;20.890;2024-03-29T07:27:09;5.18;;;2.35;;
42084;SDS011;27746;52.228;20.890;2024-03-29T07:29:39;3.63;;;1.60;;
42084;SDS011;27746;52.228;20.890;2024-03-29T07:32:09;4.47;;;2.28;;
42084;SDS011;27746;52.228;20.890;2024-03-29T07:34:36;6.32;;;1.95;;
42084;SDS011;27746;52.228;20.890;2024-03-29T07:37:04;4.30;;;1.70;;
42084;SDS011;27746;52.228;20.890;2024-03-29T07:39:31;3.78;;;1.60;;
42084;SDS011;27746;52.228;20.890;2024-03-29T07:41:58;5.55;;;2.22;;
42084;SDS011;27746;52.228;20.890;2024-03-29T07:44:25;3.88;;;1.50;;
42084;SDS011;27746;52.228;20.890;2024-03-29T07:46:54;6.40;;;1.60;;
42084;SDS011;27746;52.228;20.890;2024-03-29T07:49:20;4.53;;;1.83;;
42084;SDS011;27746;52.228;20.890;2024-03-29T07:51:48;3.70;;;1.52;;
42084;SDS011;27746;52.228;20.890;2024-03-29T07:54:15;5.65;;;1.40;;
42084;SDS011;27746;52.228;20.890;2024-03-29T07:56:42;3.97;;;1.33;;
42084;SDS011;27746;52.228;20.890;2024-03-29T07:59:09;5.88;;;1.40;;
42084;SDS011;27746;52.228;20.890;2024-03-29T08:01:35;3.80;;;1.20;;
42084;SDS011;27746;52.228;20.890;2024-03-29T08:04:04;5.75;;;1.40;;
42084;SDS011;27746;52.228;20.890;2024-03-29T08:06:31;3.60;;;1.20;;
42084;SDS011;27746;52.228;20.890;2024-03-29T08:08:58;2.45;;;1.20;;
42084;SDS011;27746;52.228;20.890;2024-03-29T08:11:25;3.10;;;0.93;;
42084;SDS011;27746;52.228;20.890;2024-03-29T08:13:52;2.13;;;1.00;;
42084;SDS011;27746;52.228;20.890;2024-03-29T08:16:19;3.50;;;0.88;;
42084;SDS011;27746;52.228;20.890;2024-03-29T08:18:46;3.08;;;1.17;;
42084;SDS011;27746;52.228;20.890;2024-03-29T08:21:15;3.80;;;1.17;;
42084;SDS011;27746;52.228;20.890;2024-03-29T08:23:42;3.00;;;1.00;;
42084;SDS011;27746;52.228;20.890;2024-03-29T08:26:11;9.02;;;2.05;;
42084;SDS011;27746;52.228;20.890;2024-03-29T08:28:38;4.28;;;1.45;;
42084;SDS011;27746;52.228;20.890;2024-03-29T08:31:05;5.25;;;1.48;;
42084;SDS011;27746;52.228;20.890;2024-03-29T08:33:34;4.00;;;1.20;;
42084;SDS011;27746;52.228;20.890;2024-03-29T08:36:02;4.47;;;1.20;;
42084;SDS011;27746;52.228;20.890;2024-03-29T08:38:38;3.70;;;1.40;;
42084;SDS011;27746;52.228;20.890;2024-03-29T08:41:08;5.30;;;1.23;;
42084;SDS011;27746;52.228;20.890;2024-03-29T08:43:35;3.35;;;1.15;;
42084;SDS011;27746;52.228;20.890;2024-03-29T08:46:03;2.75;;;1.02;;
42084;SDS011;27746;52.228;20.890;2024-03-29T08:48:30;8.70;;;1.50;;
42084;SDS011;27746;52.228;20.890;2024-03-29T08:50:57;5.57;;;1.40;;
42084;SDS011;27746;52.228;20.890;2024-03-29T08:53:24;2.67;;;1.20;;
42084;SDS011;27746;52.228;20.890;2024-03-29T08:55:53;8.38;;;1.50;;
42084;SDS011;27746;52.228;20.890;2024-03-29T08:58:20;3.72;;;1.17;;
42084;SDS011;27746;52.228;20.890;2024-03-29T09:00:52;3.10;;;1.20;;
42084;SDS011;27746;52.228;20.890;2024-03-29T09:03:20;2.78;;;1.15;;
42084;SDS011;27746;52.228;20.890;2024-03-29T09:05:48;6.53;;;1.38;;
42084;SDS011;27746;52.228;20.890;2024-03-29T09:08:15;3.42;;;1.30;;
42084;SDS011;27746;52.228;20.890;2024-03-29T09:10:43;3.45;;;1.55;;
42084;SDS011;27746;52.228;20.890;2024-03-29T09:13:11;3.28;;;1.35;;
42084;SDS011;27746;52.228;20.890;2024-03-29T09:15:38;4.75;;;1.85;;
42084;SDS011;27746;52.228;20.890;2024-03-29T09:18:05;6.63;;;2.00;;
42084;SDS011;27746;52.228;20.890;2024-03-29T09:20:42;3.17;;;1.50;;
42084;SDS011;27746;52.228;20.890;2024-03-29T09:23:09;6.32;;;2.33;;
42084;SDS011;27746;52.228;20.890;2024-03-29T09:25:39;4.65;;;1.65;;
42084;SDS011;27746;52.228;20.890;2024-03-29T09:28:06;3.80;;;1.80;;
42084;SDS011;27746;52.228;20.890;2024-03-29T09:30:36;3.47;;;1.40;;
42084;SDS011;27746;52.228;20.890;2024-03-29T09:33:03;4.85;;;1.67;;
42084;SDS011;27746;52.228;20.890;2024-03-29T09:35:34;3.05;;;1.45;;
42084;SDS011;27746;52.228;20.890;2024-03-29T09:38:03;5.82;;;1.90;;
42084;SDS011;27746;52.228;20.890;2024-03-29T09:40:32;6.40;;;1.73;;
42084;SDS011;27746;52.228;20.890;2024-03-29T09:42:59;4.63;;;1.60;;
42084;SDS011;27746;52.228;20.890;2024-03-29T09:45:28;4.40;;;2.00;;
42084;SDS011;27746;52.228;20.890;2024-03-29T09:48:01;6.40;;;2.10;;
42084;SDS011;27746;52.228;20.890;2024-03-29T09:50:30;5.72;;;1.90;;
42084;SDS011;27746;52.228;20.890;2024-03-29T09:52:57;3.90;;;2.05;;
42084;SDS011;27746;52.228;20.890;2024-03-29T09:55:25;6.20;;;1.60;;
42084;SDS011;27746;52.228;20.890;2024-03-29T09:57:53;3.00;;;1.52;;
42084;SDS011;27746;52.228;20.890;2024-03-29T10:00:20;5.80;;;1.77;;
42084;SDS011;27746;52.228;20.890;2024-03-29T10:02:47;7.10;;;1.70;;
42084;SDS011;27746;52.228;20.890;2024-03-29T10:05:17;5.00;;;1.77;;
42084;SDS011;27746;52.228;20.890;2024-03-29T10:07:44;3.78;;;1.55;;
42084;SDS011;27746;52.228;20.890;2024-03-29T10:10:12;5.13;;;2.13;;
42084;SDS011;27746;52.228;20.890;2024-03-29T10:12:39;3.90;;;1.60;;
42084;SDS011;27746;52.228;20.890;2024-03-29T10:15:07;6.53;;;1.67;;
42084;SDS011;27746;52.228;20.890;2024-03-29T10:17:39;5.18;;;1.85;;
42084;SDS011;27746;52.228;20.890;2024-03-29T10:20:11;4.15;;;1.92;;
42084;SDS011;27746;52.228;20.890;2024-03-29T10:22:41;5.13;;;1.77;;
42084;SDS011;27746;52.228;20.890;2024-03-29T10:25:09;6.65;;;1.60;;
42084;SDS011;27746;52.228;20.890;2024-03-29T10:27:36;3.20;;;1.40;;
42084;SDS011;27746;52.228;20.890;2024-03-29T10:30:03;6.35;;;1.67;;
42084;SDS011;27746;52.228;20.890;2024-03-29T10:32:31;10.43;;;1.63;;
42084;SDS011;27746;52.228;20.890;2024-03-29T10:34:58;2.58;;;1.40;;
42084;SDS011;27746;52.228;20.890;2024-03-29T10:37:27;5.63;;;1.52;;
42084;SDS011;27746;52.228;20.890;2024-03-29T10:39:59;3.53;;;1.30;;
42084;SDS011;27746;52.228;20.890;2024-03-29T10:42:27;3.85;;;1.50;;
42084;SDS011;27746;52.228;20.890;2024-03-29T10:44:55;7.90;;;1.50;;
42084;SDS011;27746;52.228;20.890;2024-03-29T10:47:23;3.15;;;1.40;;
42084;SDS011;27746;52.228;20.890;2024-03-29T10:49:52;4.80;;;1.52;;
42084;SDS011;27746;52.228;20.890;2024-03-29T10:52:21;3.17;;;1.30;;
42084;SDS011;27746;52.228;20.890;2024-03-29T10:54:48;4.40;;;1.25;;
42084;SDS011;27746;52.228;20.890;2024-03-29T10:57:19;4.00;;;1.30;;
42084;SDS011;27746;52.228;20.890;2024-03-29T10:59:49;3.97;;;1.50;;
42084;SDS011;27746;52.228;20.890;2024-03-29T11:02:31;4.13;;;1.25;;
42084;SDS011;27746;52.228;20.890;2024-03-29T11:05:06;3.80;;;1.48;;
42084;SDS011;27746;52.228;20.890;2024-03-29T11:07:38;5.40;;;1.60;;
42084;SDS011;27746;52.228;20.890;2024-03-29T11:10:08;3.17;;;1.30;;
42084;SDS011;27746;52.228;20.890;2024-03-29T11:12:41;3.55;;;1.60;;
42084;SDS011;27746;52.228;20.890;2024-03-29T11:15:19;5.30;;;1.20;;
42084;SDS011;27746;52.228;20.890;2024-03-29T11:17:53;4.85;;;1.20;;
42084;SDS011;27746;52.228;20.890;2024-03-29T11:20:21;2.92;;;1.00;;
42084;SDS011;27746;52.228;20.890;2024-03-29T11:22:58;5.60;;;1.00;;
42084;SDS011;27746;52.228;20.890;2024-03-29T11:25:41;2.85;;;1.20;;
42084;SDS011;27746;52.228;20.890;2024-03-29T11:28:11;3.47;;;1.17;;
42084;SDS011;27746;52.228;20.890;2024-03-29T11:30:47;3.05;;;1.13;;
42084;SDS011;27746;52.228;20.890;2024-03-29T11:33:33;4.90;;;1.10;;
42084;SDS011;27746;52.228;20.890;2024-03-29T11:36:19;2.65;;;1.35;;
42084;SDS011;27746;52.228;20.890;2024-03-29T11:38:49;4.07;;;1.13;;
42084;SDS011;27746;52.228;20.890;2024-03-29T11:41:17;4.85;;;1.20;;
42084;SDS011;27746;52.228;20.890;2024-03-29T11:43:48;4.82;;;1.23;;
42084;SDS011;27746;52.228;20.890;2024-03-29T11:46:16;3.63;;;1.40;;
42084;SDS011;27746;52.228;20.890;2024-03-29T11:48:43;4.90;;;1.40;;
42084;SDS011;27746;52.228;20.890;2024-03-29T11:51:12;2.92;;;1.00;;
42084;SDS011;27746;52.228;20.890;2024-03-29T11:53:40;4.20;;;1.17;;
42084;SDS011;27746;52.228;20.890;2024-03-29T11:56:07;2.92;;;1.13;;
42084;SDS011;27746;52.228;20.890;2024-03-29T11:58:34;4.15;;;1.20;;
42084;SDS011;27746;52.228;20.890;2024-03-29T12:01:03;3.63;;;1.08;;
42084;SDS011;27746;52.228;20.890;2024-03-29T12:03:30;5.85;;;1.30;;
42084;SDS011;27746;52.228;20.890;2024-03-29T12:05:58;2.95;;;1.05;;
42084;SDS011;27746;52.228;20.890;2024-03-29T12:08:28;3.83;;;1.10;;
42084;SDS011;27746;52.228;20.890;2024-03-29T12:10:56;3.35;;;1.25;;
42084;SDS011;27746;52.228;20.890;2024-03-29T12:13:24;2.90;;;0.98;;
42084;SDS011;27746;52.228;20.890;2024-03-29T12:15:51;4.78;;;1.10;;
42084;SDS011;27746;52.228;20.890;2024-03-29T12:18:20;2.53;;;1.10;;
42084;SDS011;27746;52.228;20.890;2024-03-29T12:20:48;3.42;;;1.30;;
42084;SDS011;27746;52.228;20.890;2024-03-29T12:23:16;4.63;;;1.00;;
42084;SDS011;27746;52.228;20.890;2024-03-29T12:25:42;5.90;;;1.30;;
42084;SDS011;27746;52.228;20.890;2024-03-29T12:28:10;4.93;;;1.20;;
42084;SDS011;27746;52.228;20.890;2024-03-29T12:30:37;3.58;;;1.20;;
42084;SDS011;27746;52.228;20.890;2024-03-29T12:33:08;2.55;;;1.10;;
42084;SDS011;27746;52.228;20.890;2024-03-29T12:35:37;4.10;;;1.38;;
42084;SDS011;27746;52.228;20.890;2024-03-29T12:38:04;3.67;;;1.00;;
42084;SDS011;27746;52.228;20.890;2024-03-29T12:40:33;5.53;;;1.10;;
42084;SDS011;27746;52.228;20.890;2024-03-29T12:43:03;8.43;;;1.10;;
42084;SDS011;27746;52.228;20.890;2024-03-29T12:45:32;4.90;;;1.40;;
42084;SDS011;27746;52.228;20.890;2024-03-29T12:47:59;6.10;;;1.10;;
42084;SDS011;27746;52.228;20.890;2024-03-29T12:50:28;7.50;;;1.25;;
42084;SDS011;27746;52.228;20.890;2024-03-29T12:52:57;6.22;;;1.33;;
42084;SDS011;27746;52.228;20.890;2024-03-29T12:55:25;2.72;;;0.80;;
42084;SDS011;27746;52.228;20.890;2024-03-29T12:57:55;4.68;;;1.40;;
42084;SDS011;27746;52.228;20.890;2024-03-29T13:00:25;9.13;;;1.20;;
42084;SDS011;27746;52.228;20.890;2024-03-29T13:02:52;2.83;;;0.90;;
42084;SDS011;27746;52.228;20.890;2024-03-29T13:05:19;5.30;;;1.27;;
42084;SDS011;27746;52.228;20.890;2024-03-29T13:07:47;2.47;;;0.90;;
42084;SDS011;27746;52.228;20.890;2024-03-29T13:10:17;7.40;;;0.93;;
42084;SDS011;27746;52.228;20.890;2024-03-29T13:12:46;4.05;;;0.88;;
42084;SDS011;27746;52.228;20.890;2024-03-29T13:15:15;3.55;;;0.80;;
42084;SDS011;27746;52.228;20.890;2024-03-29T13:17:44;3.35;;;0.90;;
42084;SDS011;27746;52.228;20.890;2024-03-29T13:20:12;2.42;;;0.95;;
42084;SDS011;27746;52.228;20.890;2024-03-29T13:22:40;3.90;;;0.75;;
42084;SDS011;27746;52.228;20.890;2024-03-29T13:25:09;1.58;;;0.73;;
42084;SDS011;27746;52.228;20.890;2024-03-29T13:27:37;4.30;;;1.00;;
42084;SDS011;27746;52.228;20.890;2024-03-29T13:30:06;2.75;;;0.85;;
42084;SDS011;27746;52.228;20.890;2024-03-29T13:32:34;3.08;;;1.10;;
42084;SDS011;27746;52.228;20.890;2024-03-29T13:35:01;3.10;;;0.95;;
42084;SDS011;27746;52.228;20.890;2024-03-29T13:37:30;3.88;;;0.80;;
42084;SDS011;27746;52.228;20.890;2024-03-29T13:39:57;3.13;;;0.90;;
42084;SDS011;27746;52.228;20.890;2024-03-29T13:42:24;1.85;;;0.77;;
42084;SDS011;27746;52.228;20.890;2024-03-29T13:44:52;2.97;;;0.70;;
42084;SDS011;27746;52.228;20.890;2024-03-29T13:47:19;2.97;;;1.10;;
42084;SDS011;27746;52.228;20.890;2024-03-29T13:49:46;1.88;;;0.73;;
42084;SDS011;27746;52.228;20.890;2024-03-29T13:52:15;2.40;;;0.70;;
42084;SDS011;27746;52.228;20.890;2024-03-29T13:54:42;2.58;;;0.65;;
42084;SDS011;27746;52.228;20.890;2024-03-29T13:57:11;2.85;;;1.00;;
42084;SDS011;27746;52.228;20.890;2024-03-29T13:59:38;3.67;;;1.02;;
42084;SDS011;27746;52.228;20.890;2024-03-29T14:02:10;3.03;;;0.73;;
42084;SDS011;27746;52.228;20.890;2024-03-29T14:04:38;3.47;;;0.90;;
42084;SDS011;27746;52.228;20.890;2024-03-29T14:07:05;3.53;;;0.82;;
42084;SDS011;27746;52.228;20.890;2024-03-29T14:09:33;2.50;;;0.75;;
42084;SDS011;27746;52.228;20.890;2024-03-29T14:12:00;3.65;;;0.98;;
42084;SDS011;27746;52.228;20.890;2024-03-29T14:14:28;3.55;;;0.95;;
42084;SDS011;27746;52.228;20.890;2024-03-29T14:16:55;2.92;;;0.98;;
42084;SDS011;27746;52.228;20.890;2024-03-29T14:19:23;2.45;;;0.80;;
42084;SDS011;27746;52.228;20.890;2024-03-29T14:21:51;8.32;;;0.85;;
42084;SDS011;27746;52.228;20.890;2024-03-29T14:24:18;3.65;;;0.70;;
42084;SDS011;27746;52.228;20.890;2024-03-29T14:26:45;1.65;;;0.75;;
42084;SDS011;27746;52.228;20.890;2024-03-29T14:29:12;2.35;;;0.90;;
42084;SDS011;27746;52.228;20.890;2024-03-29T14:31:42;2.58;;;0.82;;
42084;SDS011;27746;52.228;20.890;2024-03-29T14:34:09;2.42;;;0.80;;
42084;SDS011;27746;52.228;20.890;2024-03-29T14:36:38;2.00;;;0.60;;
42084;SDS011;27746;52.228;20.890;2024-03-29T14:39:04;2.58;;;0.80;;